Eureka, NV

2:39 AM PST on December 27, 2014 (GMT -0800)
Eureka | Change Station
CLOSE
Current Station
Airport
Location: Eureka,
Elevation: 5945 ft
Nearby Weather Stations

Elev 5945 ft 39.60 °N, 116.01 °W | Updated 46 minutes ago

Clear
Clear
4 °F
Feels Like -3 °F
N
4
Wind Variable Wind from SE
Gusts 5 mph

Today
High -- | Low -- °F
--% Chance of Precip.
Yesterday
High -- | Low -- °F
Precip. -- in
7:03 AM 4:26 PM
Waxing Crescent, 35% visible
Pressure 30.43 in
Visibility -9999.0 miles
Clouds
Windchill -3 °F
Dew Point 0 °F
Humidity 84%
Rainfall 0.00 in
Snow Depth Not available.
UV Not available.
Pollen .10 out of 12
Air Quality Not available.
Flu Activity Not available.
METAR KP68 270953Z AUTO 13003KT M16/M18 A3028 RMK AO1 SLP304 T11561178

More Conditions Fewer Conditions

Pressure 30.43 in
Visibility -9999.0 miles
Clouds
Windchill -3 °F
Dew Point 0 °F
Humidity 84%
Rainfall 0.00 in
Snow Depth Not available.
UV Not available.
Pollen .10 out of 12
Air Quality Not available.
Flu Activity Not available.
METAR KP68 270953Z AUTO 13003KT M16/M18 A3028 RMK AO1 SLP304 T11561178

More Conditions Fewer Conditions

10-Day Weather Forecast

Almanac

Astronomy

Dec. 27, 2014 Rise Set
Actual Time
Civil Twilight
Nautical Twilight
Astronomical Twilight
Moon
Length of Visible Light
Length of Day
Tomorrow will be .
, % of the Moon is Illuminated

Today's Extremes

State Highs State Lows

Community

WunderPhotos

Upload Photos

1,780,876 photos uploaded!

WunderBlogs® & News

Nearby

Air Quality

  Air Quality AQ Index Pollutant
Not available.

Snow Depth

Station Depth Elevation

Earthquake Activity

City Distance Mag. Time & Date
Minimum magnitude displayed is 2.5.

Coastal Water Temperatures

Place Temperature

Nearby Weather Stations